My Meet Scores
Katherine Day, Gym Kinetics Gymnastics - MyMeetScores.com
Top100 | Top Teams | Upcoming Meets | Completed Meets | Latest | Add Scores | Help| Support | Bookmark and Share

Katherine Day, Gym Kinetics Gymnastics
Personal Bests
LevelVault BarsBeamFloorAA
48.7509.525 9.1759.52536.975
59.0509.600 9.5259.25037.100
79.3009.375 9.6509.60037.350
89.60010.000 9.8259.60038.500
99.0009.100 9.2509.02534.675
Scores on America's Top 100as of 10.15.2021
Year Level Vault Bars Beam Floor AA
2018 89.825
2019 810.000, 9.85038.500

Click here to view our exclusive Top 100 Collection
Meet Scores
Date Meet Team Session Level Division Vault Bars Beam Floor AA
2021-04-09 Illinois Level 7 8 State Championships Gym Kinetics Gymnastics 8 8 Sr C 8.050 24T 0.000 27T 8.925 17 9.125 16T 26.100 26
2021-02-12 Harley Meet Women - Midwest Twisters Gym Kinetics Gymnastics O02 8 Sr A 0.000 11T 9.500 1 8.950 1 9.125 5T 27.575 11
2021-01-21 King Arthur Invitational Gym Kinetics Gymnastics 2 8 SR 0.000 14T 9.050 4T 9.125 9 9.000 14T 27.175 12
2020-03-06 2020 Flip'r Invitational Gym Kinetics Gymnastics 5 9 JR A 9.000 8 7.600 8 8.150 8 8.875 6 33.625 7
2020-02-21 Kinetic Classic Gym Kinetics Gymnastics 04 9 Younger 0.000 19T 8.900 12 9.025 6 8.950 11 26.875 18
2020-01-31 Chow's Challenge Gym Kinetics Gymnastics A3 9 Sr A 0.000 6 9.100 3 9.250 1 8.800 5 27.150 5
2020-01-17 2020 Bravo Classic Gym Kinetics Gymnastics 7A 9 Jr 0.000 13T 8.150 10T 8.850 5T 8.900 10 25.900 12
2020-01-10 Leenda's Island Adventure Gym Kinetics Gymnastics PG4 9 13 Year Ol 0.000 10 6.000 10 8.650 7 0.000 10 14.650 10
2019-12-07 Home for the Holidays 2019 Gym Kinetics Gymnastics 3 9 Younger 9.000 2T 8.900 1 7.750 3 9.025 2 34.675 1
2019-03-29 Illinois Level 7 & 8 State Meet Gym Kinetics Gymnastics 3 8 Jr D 9.250 6T 10.000 1 9.675 2 9.575 5 38.500 1
2019-03-01 NGCD Academy's 2019 Flip'r Invitational Gym Kinetics Gymnastics 4 8 Jr A 0.000 9T 9.375 3 9.500 1 9.125 5 28.000 9
2019-02-23 Kinetic Classic 2019 Gym Kinetics Gymnastics 1 8 Older 0.000 14 9.600 1 9.700 1 8.825 9T 28.125 13
2019-02-08 Midwest Twisters Harley Meet Womens Gym Kinetics Gymnastics O05 8 12 yrs. 9.025 1 9.775 1 9.700 1 9.600 1 38.100 1
2019-01-18 2019 Bravo Classic Gym Kinetics Gymnastics 5A 8 Jr 9.600 1 9.600 1 9.400 1 9.225 2T 37.825 1
2019-01-11 St Jude Benefit Meet Gym Kinetics Gymnastics 9B 8 Jr B 9.425 1 9.850 1 9.475 1 9.575 2 38.325 1
2018-12-14 2018 Aspire Classic Gym Kinetics Gymnastics 7B 8 All 9.400 1 9.550 1 9.550 1 9.425 1 37.925 1
2018-03-23 Illinois Level 7 & 8 State Competition Gym Kinetics Gymnastics 03 8 Jr B 9.050 16 9.250 9T 9.375 3 9.275 13 36.950 9
2018-02-23 Kinetic Classic Gym Kinetics Gymnastics 2 8 Younger 8.950 14T 9.525 6T 9.400 3 9.125 20 37.000 8
2018-02-09 Arizona Sunrays Classic Rock Invitational Gym Kinetics Gymnastics W04 8 JrB 8.950 5 9.625 2 9.825 1 9.325 6 37.725 1T
2018-02-03 Midwest Games Gym Kinetics Gymnastics 3 8 JR 8.850 1 9.125 2 9.600 1 9.550 1 37.125 1
2018-01-19 2018 Bravo Classic Gym Kinetics Gymnastics 9A 8 Jr 8.175 14 9.675 2 9.150 5 9.300 2 36.300 5
2017-12-15 2017 Aspire Classic Gym Kinetics Gymnastics 7B 8 Younger 8.850 11T 9.425 5 9.375 3 9.450 7T 37.100 4
2017-03-23 2017 Illinois Level 6, 7 State Championship Gym Kinetics Gymnastics 1 7 Jr B 9.200 18T 8.400 30 9.650 1T 9.600 6T 36.850 15T
2017-02-24 Kinetic Classic Gym Kinetics Gymnastics 1 7 All Ages 9.100 29T 9.300 19 9.375 5 9.225 22* 37.000 11T
2017-02-09 Hal's Harley-Davidson Invite Gym Kinetics Gymnastics O02 7 10 under 9.300 3T 9.375 2 9.300 4 9.375 6 37.350 1
2017-01-13 St Jude Benefit Meet Gym Kinetics Gymnastics 3B 7 Jr A 9.075 12 9.375 6 9.425 9 8.050 17 35.925 14
2016-12-16 2016 Aspire Classic Gym Kinetics Gymnastics 2 7 Younger 9.050 5 9.025 5 9.050 3 9.400 2T 36.525 4
2016-04-22 2016 Illinois Level 5 And Xcel State Championships Gym Kinetics Gymnastics 2 5 Ch B 8.950 16T 9.525 1 9.475 2 9.150 13 37.100 1T
2016-02-20 Big Classic Gym Kinetics Gymnastics 11B 5 Child A 8.700 12 8.675 10 9.525 2 9.150 6 36.050 8T
2016-01-22 2016 Honkytonk Classic Gym Kinetics Gymnastics 04 5 Ch 9.050 5 9.225 3 8.350 5 9.250 1 35.875 2
2016-01-15 2016 Bravo Classic Gym Kinetics Gymnastics 1A 5 7-9yrs 9.000 7 9.400 1 8.775 11 9.075 7T 36.250 5
2015-12-18 2015 Aspire Classic Gym Kinetics Gymnastics 12 5 Younger 8.500 16 9.600 1 8.300 16T 9.175 8 35.575 8
2015-12-04 2015 Ultimate Wish Classic Gym Kinetics Gymnastics 9A 5 All 8.450 57 9.200 6 8.750 29 9.175 7 35.575 15
2015-03-19 2015 Illinois Level 4 State Championship Gym Kinetics Gymnastics All 4 ChildD 8.750 21 9.525 2 9.175 15 9.525 2 36.975 7
2015-02-27 Gasparilla Classic Gym Kinetics Gymnastics D6 4 L4 D6 grp1 8.550 3 9.400 1 8.950 6 9.125 2T 36.025 3
Get your scores on
a t-shirt, pin, or hoodie